Time;durP1;ratioP1;P1;durP2;ratioP2;P2;SDS_P1;SDS_P2;PMS_P1;PMS_P2;Temp;Humidity;BMP_temperature;BMP_pressure;BME280_temperature;BME280_humidity;BME280_pressure;Samples;Min_cycle;Max_cycle;Signal;HPM_P1;HPM_P2
2022/02/05 00:00:26;;;;;;;13.20;3.25;;;;;;;2.72;100.00;101617.28;5053713;28;20029;-35
2022/02/05 00:03:11;;;;;;;6.93;2.22;;;;;;;2.64;100.00;101614.59;5053455;28;20072;-35
2022/02/05 00:10:54;;;;;;;8.18;2.38;;;;;;;2.72;100.00;101623.44;5053984;28;20037;-35
2022/02/05 00:43:10;;;;;;;8.93;2.40;;;;;;;2.91;100.00;101648.25;5057227;28;20082;-34
2022/02/05 00:45:40;;;;;;;7.60;2.13;;;;;;;2.91;100.00;101653.59;5057420;28;20063;-35
2022/02/05 00:48:06;;;;;;;5.50;2.25;;;;;;;2.85;100.00;101647.06;5057504;28;20036;-35
2022/02/05 00:50:36;;;;;;;9.93;2.65;;;;;;;2.86;100.00;101661.25;5057530;28;20052;-35
2022/02/05 00:55:31;;;;;;;9.40;2.83;;;;;;;2.80;100.00;101663.56;5057185;28;20072;-36
2022/02/05 00:58:02;;;;;;;10.43;2.97;;;;;;;2.69;100.00;101653.16;5059473;28;20084;-35
2022/02/05 01:00:27;;;;;;;11.73;3.38;;;;;;;2.71;100.00;101667.19;5059987;28;20108;-36
2022/02/05 01:02:53;;;;;;;9.17;3.30;;;;;;;2.62;100.00;101660.13;5059515;28;20441;-36
2022/02/05 01:05:20;;;;;;;7.73;3.43;;;;;;;2.69;100.00;101677.19;5059200;28;20112;-35
2022/02/05 01:07:45;;;;;;;10.07;4.28;;;;;;;2.68;100.00;101677.34;5059371;28;20044;-34
2022/02/05 01:10:11;;;;;;;10.18;3.85;;;;;;;2.68;100.00;101686.19;5059437;28;20493;-35
2022/02/05 01:12:41;;;;;;;9.23;3.42;;;;;;;2.63;100.00;101685.81;5059396;28;20100;-35
2022/02/05 01:15:07;;;;;;;10.35;3.80;;;;;;;2.53;100.00;101679.75;5059325;28;20029;-35
2022/02/05 01:17:42;;;;;;;7.35;4.18;;;;;;;2.52;100.00;101686.94;5059784;28;20033;-35
2022/02/05 01:22:41;;;;;;;11.35;4.30;;;;;;;2.36;100.00;101662.00;5059587;28;20045;-35
2022/02/05 01:25:06;;;;;;;8.35;3.75;;;;;;;2.48;100.00;101693.59;5059873;28;20029;-35
2022/02/05 01:32:33;;;;;;;11.10;4.20;;;;;;;2.45;100.00;101711.78;5059744;28;20112;-35
2022/02/05 01:35:07;;;;;;;9.52;4.15;;;;;;;2.44;100.00;101715.41;5058844;28;20033;-35
2022/02/05 02:11:47;;;;;;;8.52;3.30;;;;;;;2.35;100.00;101762.59;5055816;28;20094;-35
2022/02/05 02:19:50;;;;;;;13.65;4.28;;;;;;;2.32;100.00;101766.38;5055824;28;20130;-35
2022/02/05 02:25:05;;;;;;;9.75;3.42;;;;;;;2.32;100.00;101777.06;5055565;28;20079;-35
2022/02/05 02:30:40;;;;;;;11.03;3.83;;;;;;;2.30;100.00;101781.72;5055477;28;20037;-35
2022/02/05 02:33:02;;;;;;;11.60;3.80;;;;;;;2.35;100.00;101780.44;5054739;28;20041;-34
2022/02/05 02:35:29;;;;;;;9.02;3.72;;;;;;;2.38;100.00;101780.09;5054992;28;20025;-35
2022/02/05 02:38:06;;;;;;;11.27;3.95;;;;;;;2.38;100.00;101780.09;5053718;28;20477;-34
2022/02/05 02:40:46;;;;;;;12.20;3.97;;;;;;;2.28;100.00;101764.19;5055817;28;20517;-35
2022/02/05 02:43:23;;;;;;;10.93;3.85;;;;;;;2.29;100.00;101779.19;5055176;28;20029;-35
2022/02/05 02:45:49;;;;;;;13.13;4.18;;;;;;;2.28;100.00;101783.69;5055282;28;20044;-35
2022/02/05 02:48:14;;;;;;;11.27;3.60;;;;;;;2.29;100.00;101792.53;5053754;28;20087;-35
2022/02/05 02:56:33;;;;;;;7.97;3.63;;;;;;;2.27;100.00;101800.72;5054967;28;20178;-35
2022/02/05 02:59:06;;;;;;;12.27;4.60;;;;;;;2.27;100.00;101810.56;5055115;28;20063;-34
2022/02/05 03:01:35;;;;;;;10.13;4.18;;;;;;;2.26;100.00;101809.72;5053762;28;20029;-34
2022/02/05 03:04:00;;;;;;;10.88;3.83;;;;;;;2.22;100.00;101803.00;5054280;28;20029;-34
2022/02/05 03:06:25;;;;;;;10.77;4.10;;;;;;;2.23;100.00;101810.00;5055104;28;20406;-35
2022/02/05 03:08:51;;;;;;;9.13;4.20;;;;;;;2.27;100.00;101819.41;5054453;28;20037;-36
2022/02/05 03:11:19;;;;;;;12.53;3.93;;;;;;;2.26;100.00;101816.88;5054516;28;20025;-35
2022/02/05 03:13:45;;;;;;;10.65;3.90;;;;;;;2.23;100.00;101831.34;5054262;28;20029;-35
2022/02/05 03:16:20;;;;;;;12.13;5.20;;;;;;;2.21;100.00;101830.69;5036817;28;20152;-35
2022/02/05 03:18:50;;;;;;;12.80;4.57;;;;;;;2.19;100.00;101829.97;5054619;28;20164;-34
2022/02/05 03:21:15;;;;;;;14.80;4.38;;;;;;;2.19;100.00;101823.81;5052961;28;20025;-35
2022/02/05 03:23:40;;;;;;;12.90;3.80;;;;;;;2.16;100.00;101818.78;5053870;28;20052;-35
2022/02/05 03:26:06;;;;;;;13.87;4.90;;;;;;;2.17;100.00;101837.31;5054102;28;20033;-34
2022/02/05 03:28:33;;;;;;;7.03;3.93;;;;;;;2.14;100.00;101826.09;5053692;28;20024;-34
2022/02/05 03:30:59;;;;;;;10.90;3.78;;;;;;;2.16;100.00;101840.16;5054771;28;20385;-34
2022/02/05 03:33:24;;;;;;;14.97;4.27;;;;;;;2.10;100.00;101836.25;5053923;28;20029;-34
2022/02/05 03:35:50;;;;;;;12.40;4.23;;;;;;;2.15;100.00;101855.31;5054165;28;20035;-35
2022/02/05 03:38:15;;;;;;;10.57;4.15;;;;;;;2.15;100.00;101854.44;5053784;28;20032;-35
2022/02/05 03:40:41;;;;;;;10.53;4.00;;;;;;;2.13;100.00;101856.44;5053587;28;20032;-35
2022/02/05 03:43:06;;;;;;;11.23;4.43;;;;;;;2.12;100.00;101857.44;5053515;28;20029;-35
2022/02/05 03:45:33;;;;;;;12.35;4.40;;;;;;;2.14;100.00;101844.78;5054114;28;20481;-35
2022/02/05 03:47:58;;;;;;;12.93;4.78;;;;;;;2.15;100.00;101851.78;5053352;28;20466;-35
2022/02/05 03:50:24;;;;;;;8.70;4.28;;;;;;;2.15;100.00;101843.78;5053556;28;20017;-34
2022/02/05 03:52:49;;;;;;;14.63;4.90;;;;;;;2.09;100.00;101829.22;5053576;28;20461;-34
2022/02/05 03:55:15;;;;;;;12.50;5.23;;;;;;;2.19;100.00;101851.31;5053599;28;20252;-34
2022/02/05 03:57:40;;;;;;;15.67;4.47;;;;;;;2.21;100.00;101853.88;5053482;28;20371;-34
2022/02/05 04:00:08;;;;;;;10.47;4.03;;;;;;;2.21;100.00;101852.03;5053823;28;20071;-35
2022/02/05 04:02:37;;;;;;;14.07;4.65;;;;;;;2.23;100.00;101859.88;5053051;28;20131;-35
2022/02/05 04:05:04;;;;;;;12.18;4.68;;;;;;;2.25;100.00;101861.41;5053647;28;20040;-35
2022/02/05 04:07:32;;;;;;;9.48;4.00;;;;;;;2.27;100.00;101858.59;5053511;28;20099;-35
2022/02/05 04:10:02;;;;;;;10.68;3.80;;;;;;;2.30;100.00;101861.81;5053259;28;20488;-35
2022/02/05 04:17:55;;;;;;;10.88;4.22;;;;;;;2.25;100.00;101860.59;5052955;28;20091;-34
2022/02/05 04:20:20;;;;;;;10.93;4.17;;;;;;;2.24;100.00;101859.72;5053759;28;20415;-34
2022/02/05 04:22:46;;;;;;;10.53;4.00;;;;;;;2.28;100.00;101869.09;5053298;28;20535;-34
2022/02/05 04:25:12;;;;;;;8.95;3.55;;;;;;;2.20;100.00;101863.72;5053166;28;20488;-34
2022/02/05 04:27:38;;;;;;;12.05;4.40;;;;;;;2.25;100.00;101874.75;5052741;28;20037;-34
2022/02/05 04:30:05;;;;;;;16.15;4.45;;;;;;;2.13;100.00;101862.63;5053541;28;20112;-34
2022/02/05 04:32:30;;;;;;;10.07;3.63;;;;;;;1.98;100.00;101843.63;5052657;28;20025;-34
2022/02/05 04:34:56;;;;;;;14.47;4.20;;;;;;;2.20;100.00;101885.06;5053009;28;20091;-34
2022/02/05 04:37:24;;;;;;;8.10;3.90;;;;;;;2.16;100.00;101880.16;5052910;28;20029;-34
2022/02/05 04:40:02;;;;;;;10.00;4.47;;;;;;;2.17;100.00;101887.19;5052931;28;20032;-34
2022/02/05 04:42:39;;;;;;;13.60;4.88;;;;;;;2.15;100.00;101898.00;5051581;28;20029;-35
2022/02/05 04:53:05;;;;;;;15.32;4.28;;;;;;;1.99;100.00;101871.97;5053091;28;20036;-34
2022/02/05 04:55:45;;;;;;;14.48;4.63;;;;;;;2.11;100.00;101895.78;5052258;28;20102;-35
2022/02/05 05:09:04;;;;;;;12.38;5.25;;;;;;;2.04;100.00;101907.03;5052975;28;20041;-34
2022/02/05 05:11:46;;;;;;;12.82;4.93;;;;;;;2.01;100.00;101907.34;5052959;28;20484;-35
2022/02/05 05:19:49;;;;;;;12.82;4.55;;;;;;;2.04;100.00;101931.06;5051205;28;20052;-35
2022/02/05 05:22:15;;;;;;;9.55;4.03;;;;;;;2.04;100.00;101936.38;5033751;28;20448;-35
2022/02/05 05:24:42;;;;;;;11.13;4.07;;;;;;;2.05;100.00;101938.09;5050127;28;20091;-34
2022/02/05 05:27:07;;;;;;;12.95;5.05;;;;;;;2.07;100.00;101937.94;5051076;28;20037;-35
2022/02/05 05:29:33;;;;;;;12.23;4.73;;;;;;;2.06;100.00;101928.25;5054725;28;20048;-35
2022/02/05 05:31:58;;;;;;;14.53;4.47;;;;;;;2.11;100.00;101938.50;5053780;28;20025;-35
2022/02/05 05:34:23;;;;;;;9.10;4.37;;;;;;;2.11;100.00;101938.50;5054255;28;20033;-35
2022/02/05 05:36:49;;;;;;;11.90;4.23;;;;;;;2.08;100.00;101931.59;5053708;28;20055;-36
2022/02/05 05:39:14;;;;;;;13.02;4.32;;;;;;;2.08;100.00;101928.94;5053914;28;20087;-35
2022/02/05 05:41:40;;;;;;;13.80;4.00;;;;;;;2.08;100.00;101939.59;5053718;28;20397;-35
2022/02/05 05:46:50;;;;;;;12.00;4.10;;;;;;;2.08;100.00;101934.28;5054025;28;20060;-35
2022/02/05 05:49:18;;;;;;;8.50;4.32;;;;;;;2.00;100.00;101926.16;5054316;28;20052;-35
2022/02/05 05:51:45;;;;;;;10.43;4.55;;;;;;;2.07;100.00;101937.94;5053374;28;20111;-35
2022/02/05 05:54:11;;;;;;;11.18;4.05;;;;;;;2.08;100.00;101947.63;5054788;28;20037;-35
2022/02/05 05:56:37;;;;;;;10.05;4.30;;;;;;;2.03;100.00;101941.88;5055946;28;20116;-35
2022/02/05 05:59:04;;;;;;;11.98;3.67;;;;;;;2.06;100.00;101953.09;5056286;28;20134;-34
2022/02/05 06:01:30;;;;;;;16.13;3.78;;;;;;;2.09;100.00;101957.28;5055592;28;20112;-35
2022/02/05 06:03:56;;;;;;;9.63;3.53;;;;;;;2.00;100.00;101940.38;5055841;28;20033;-35
2022/02/05 06:06:22;;;;;;;11.02;3.85;;;;;;;2.08;100.00;101958.28;5055354;28;20477;-35
2022/02/05 06:08:47;;;;;;;12.48;3.97;;;;;;;2.11;100.00;101966.00;5055318;28;20066;-35
2022/02/05 06:11:13;;;;;;;8.83;3.67;;;;;;;2.10;100.00;101963.47;5055927;28;20028;-35
2022/02/05 06:13:38;;;;;;;10.57;4.50;;;;;;;2.12;100.00;101967.69;5056068;28;20029;-34
2022/02/05 06:16:08;;;;;;;11.20;4.40;;;;;;;2.01;100.00;101949.22;5056137;28;20059;-34
2022/02/05 06:18:33;;;;;;;12.95;4.43;;;;;;;2.10;100.00;101963.47;5055863;28;20021;-36
2022/02/05 06:20:59;;;;;;;11.60;4.40;;;;;;;2.09;100.00;101967.97;5055677;28;20461;-34
2022/02/05 06:23:24;;;;;;;10.90;4.30;;;;;;;2.12;100.00;101975.69;5055318;28;20508;-35
2022/02/05 06:25:49;;;;;;;16.53;5.10;;;;;;;2.14;100.00;101980.88;5055555;28;20043;-34
2022/02/05 06:28:16;;;;;;;13.07;4.20;;;;;;;2.13;100.00;101988.03;5054927;28;20032;-35
2022/02/05 06:30:42;;;;;;;;;;;;;;;2.17;100.00;101977.91;5055285;28;20029;-35
2022/02/05 06:33:07;;;;;;;8.43;3.83;;;;;;;2.13;100.00;101981.84;5054655;28;19916;-35
2022/02/05 06:35:32;;;;;;;16.37;4.77;;;;;;;2.12;100.00;101972.19;5055117;28;20033;-34
2022/02/05 06:37:58;;;;;;;18.87;4.80;;;;;;;2.12;100.00;101972.19;5055308;28;20110;-35
2022/02/05 06:40:23;;;;;;;14.30;4.50;;;;;;;2.09;100.00;101977.81;5055003;28;20043;-35
2022/02/05 06:42:48;;;;;;;16.17;5.17;;;;;;;2.00;100.00;101971.50;5055235;28;20029;-35
2022/02/05 06:45:15;;;;;;;9.57;4.27;;;;;;;2.08;100.00;101987.63;5053688;28;20358;-34
2022/02/05 06:47:41;;;;;;;9.40;4.88;;;;;;;2.11;100.00;101978.50;5054803;28;20040;-35
2022/02/05 06:50:07;;;;;;;14.60;4.67;;;;;;;2.13;100.00;101980.03;5054559;28;20029;-34
2022/02/05 06:52:33;;;;;;;13.02;4.55;;;;;;;2.15;100.00;101982.53;5054424;28;20067;-35
2022/02/05 06:54:58;;;;;;;13.55;4.90;;;;;;;2.06;100.00;101966.44;5055249;28;20025;-35
2022/02/05 06:57:24;;;;;;;13.80;5.00;;;;;;;2.18;100.00;101988.44;5054533;28;20021;-35
2022/02/05 06:59:49;;;;;;;12.00;4.37;;;;;;;2.18;100.00;101993.78;5055222;28;20080;-35
2022/02/05 07:02:15;;;;;;;13.23;3.97;;;;;;;2.19;100.00;101995.44;5054619;28;20051;-35
2022/02/05 07:04:41;;;;;;;10.17;3.80;;;;;;;2.19;100.00;101999.94;5054618;28;20033;-35
2022/02/05 07:07:06;;;;;;;13.38;4.47;;;;;;;2.14;100.00;102005.72;5054955;28;20051;-35
2022/02/05 07:09:32;;;;;;;13.67;4.90;;;;;;;2.02;100.00;101983.75;5054147;28;20029;-35
2022/02/05 07:11:59;;;;;;;10.63;4.57;;;;;;;1.97;100.00;101985.16;5054371;28;20031;-35
2022/02/05 07:14:26;;;;;;;14.15;4.97;;;;;;;1.89;100.00;101983.22;5054528;28;20021;-35
2022/02/05 07:17:05;;;;;;;9.73;4.60;;;;;;;2.00;100.00;102008.88;5054677;28;20104;-35
2022/02/05 07:21:56;;;;;;;11.60;4.70;;;;;;;1.96;100.00;102018.19;5054250;28;20040;-35
2022/02/05 07:29:34;;;;;;;16.33;5.10;;;;;;;1.94;100.00;102022.81;5054251;28;20040;-36
2022/02/05 07:31:59;;;;;;;14.07;4.80;;;;;;;1.85;100.00;102011.16;5054345;28;20033;-36
2022/02/05 07:34:30;;;;;;;12.63;4.57;;;;;;;1.90;100.00;102034.75;5054775;28;20021;-36
2022/02/05 07:37:01;;;;;;;15.73;5.22;;;;;;;1.89;100.00;102035.72;5054483;28;20155;-35
2022/02/05 07:39:29;;;;;;;11.80;4.95;;;;;;;1.86;100.00;102026.22;5054058;28;20134;-35
2022/02/05 07:41:54;;;;;;;13.45;5.00;;;;;;;1.90;100.00;102040.06;5054516;28;20238;-35
2022/02/05 07:44:21;;;;;;;14.93;5.20;;;;;;;1.80;100.00;102029.44;5054088;28;20556;-35
2022/02/05 07:46:49;;;;;;;21.92;5.30;;;;;;;1.81;100.00;102028.47;5053900;28;20504;-35
2022/02/05 07:49:17;;;;;;;12.70;4.60;;;;;;;1.90;100.00;102048.91;5052710;28;20033;-35
2022/02/05 07:51:43;;;;;;;8.98;5.10;;;;;;;1.90;100.00;102062.25;5053569;28;20025;-35
2022/02/05 07:54:11;;;;;;;12.40;5.68;;;;;;;1.91;100.00;102060.47;5053406;28;20043;-34
2022/02/05 07:56:47;;;;;;;16.55;5.72;;;;;;;1.83;100.00;102047.00;5053296;28;20420;-35
2022/02/05 07:59:14;;;;;;;15.27;6.20;;;;;;;1.85;100.00;102045.00;5053934;28;20155;-35
2022/02/05 08:01:40;;;;;;;16.45;5.05;;;;;;;1.92;100.00;102059.47;5053636;28;20369;-35
2022/02/05 08:04:06;;;;;;;21.65;6.00;;;;;;;1.93;100.00;102050.47;5053526;28;20033;-35
2022/02/05 08:06:34;;;;;;;11.60;4.50;;;;;;;1.99;100.00;102063.22;5053161;28;20507;-35
2022/02/05 08:09:02;;;;;;;17.00;5.03;;;;;;;1.96;100.00;102044.84;5053083;28;20029;-35
2022/02/05 08:11:44;;;;;;;11.52;4.82;;;;;;;2.06;100.00;102059.00;5053166;28;20029;-35
2022/02/05 08:14:11;;;;;;;10.73;4.68;;;;;;;2.00;100.00;102046.22;5053204;28;20161;-34
2022/02/05 08:19:18;;;;;;;11.13;4.78;;;;;;;2.18;100.00;102063.16;5053271;28;20071;-35
2022/02/05 08:21:44;;;;;;;18.02;5.40;;;;;;;2.15;100.00;102051.91;5053112;28;20056;-34
2022/02/05 08:24:10;;;;;;;9.93;4.18;;;;;;;2.30;100.00;102059.31;5053071;28;20029;-35
2022/02/05 08:26:37;;;;;;;15.23;4.85;;;;;;;2.36;100.00;102063.22;5053484;28;20033;-34
2022/02/05 08:29:03;;;;;;;14.85;4.93;;;;;;;2.34;100.00;102041.16;5053305;28;20078;-34
2022/02/05 08:31:30;;;;;;;15.90;5.38;;;;;;;2.49;100.00;102057.53;5053329;28;20032;-35
2022/02/05 08:33:56;;;;;;;13.23;4.63;;;;;;;2.53;100.00;102059.75;5053242;28;20358;-35
2022/02/05 08:36:23;;;;;;;12.77;4.57;;;;;;;2.55;100.00;102047.13;5052909;28;20036;-35
2022/02/05 08:38:50;;;;;;;11.32;5.32;;;;;;;2.60;100.00;102059.19;5052665;28;20111;-35
2022/02/05 08:41:16;;;;;;;14.85;4.75;;;;;;;2.64;100.00;102053.41;5053407;28;20025;-35
2022/02/05 08:43:41;;;;;;;13.10;4.47;;;;;;;2.66;100.00;102046.06;5052709;28;20062;-35
2022/02/05 08:46:07;;;;;;;13.83;4.63;;;;;;;2.78;100.00;102066.25;5053130;28;20056;-34
2022/02/05 08:48:32;;;;;;;12.20;4.50;;;;;;;2.86;100.00;102067.31;5052877;28;20029;-34
2022/02/05 08:50:58;;;;;;;11.00;4.83;;;;;;;2.77;100.00;102043.19;5053466;28;20131;-35
2022/02/05 08:53:23;;;;;;;9.68;4.10;;;;;;;2.92;100.00;102056.03;5052753;28;20025;-35
2022/02/05 08:55:51;;;;;;;11.30;3.90;;;;;;;2.97;99.58;102059.06;5052651;28;20068;-35
2022/02/05 08:58:17;;;;;;;11.05;4.32;;;;;;;2.95;100.00;102045.03;5052697;28;20036;-35
2022/02/05 09:00:52;;;;;;;10.38;4.15;;;;;;;3.06;100.00;102060.84;5053762;28;20385;-35
2022/02/05 09:03:32;;;;;;;14.75;4.28;;;;;;;3.16;99.98;102072.28;5056917;28;20462;-35
2022/02/05 09:05:57;;;;;;;12.52;3.92;;;;;;;3.22;99.19;102066.38;5057452;28;20393;-35
2022/02/05 09:08:33;;;;;;;14.07;3.95;;;;;;;3.28;99.03;102081.78;5056380;28;20029;-35
2022/02/05 09:11:11;;;;;;;13.90;4.37;;;;;;;3.32;98.63;102077.81;5056498;28;20056;-35
2022/02/05 09:16:09;;;;;;;13.68;4.45;;;;;;;3.45;98.90;102082.75;5057090;28;20033;-35
2022/02/05 09:18:36;;;;;;;12.63;3.75;;;;;;;3.56;98.38;102090.56;5056490;28;20056;-35
2022/02/05 09:21:02;;;;;;;12.65;4.28;;;;;;;3.64;97.80;102095.13;5057325;28;20025;-36
2022/02/05 09:23:27;;;;;;;12.07;4.22;;;;;;;3.68;97.41;102099.16;5056637;28;20028;-35
2022/02/05 09:25:53;;;;;;;12.93;4.63;;;;;;;3.79;97.59;102103.44;5056918;28;20040;-35
2022/02/05 09:28:21;;;;;;;11.40;4.35;;;;;;;3.75;96.73;102092.19;5057025;28;20090;-35
2022/02/05 09:31:01;;;;;;;11.75;4.43;;;;;;;3.90;96.63;102111.19;5056565;28;20033;-35
2022/02/05 09:33:26;;;;;;;14.30;4.00;;;;;;;3.89;96.65;102096.16;5056556;28;20052;-35
2022/02/05 09:35:52;;;;;;;10.90;4.43;;;;;;;4.04;96.07;102107.13;5056865;28;20119;-36
2022/02/05 09:38:17;;;;;;;12.17;5.03;;;;;;;4.10;95.59;102115.38;5056132;28;20444;-36
2022/02/05 09:40:42;;;;;;;12.97;4.03;;;;;;;4.13;95.66;102108.84;5056425;28;20017;-35
2022/02/05 09:43:08;;;;;;;9.87;3.63;;;;;;;4.10;95.39;102096.63;5056074;28;20064;-36
2022/02/05 09:45:37;;;;;;;11.80;3.97;;;;;;;4.25;95.32;102114.81;5055771;28;20067;-36
2022/02/05 09:48:04;;;;;;;11.50;3.67;;;;;;;4.24;94.45;102091.66;5054583;28;20064;-36
2022/02/05 09:50:31;;;;;;;10.70;3.10;;;;;;;4.30;93.61;102093.75;5056189;28;20028;-36
2022/02/05 09:53:02;;;;;;;13.70;4.05;;;;;;;4.40;94.09;102102.50;5055880;28;20040;-35
2022/02/05 09:55:27;;;;;;;12.02;3.70;;;;;;;4.46;94.00;102091.13;5056323;28;20097;-35
2022/02/05 09:57:53;;;;;;;9.95;3.25;;;;;;;4.52;94.37;102090.47;5055666;28;20117;-35
2022/02/05 10:00:20;;;;;;;9.47;3.30;;;;;;;4.62;93.91;102090.34;5055882;28;20392;-34
2022/02/05 10:02:54;;;;;;;12.80;4.47;;;;;;;4.67;93.38;102098.75;5055432;28;20151;-35
2022/02/05 10:05:22;;;;;;;9.52;3.50;;;;;;;4.62;92.14;102077.78;5056600;28;20044;-35
2022/02/05 10:08:09;;;;;;;13.88;4.10;;;;;;;4.79;92.58;102097.47;5055616;28;20385;-35
2022/02/05 10:10:43;;;;;;;12.95;3.55;;;;;;;4.87;92.31;102094.78;5055764;28;20029;-35
2022/02/05 10:13:15;;;;;;;15.50;3.95;;;;;;;4.93;91.52;102089.78;5055044;28;20029;-35
2022/02/05 10:15:42;;;;;;;12.70;3.95;;;;;;;5.03;91.41;102085.13;5055728;28;20086;-35
2022/02/05 10:18:21;;;;;;;13.13;3.58;;;;;;;5.10;90.38;102092.34;5055416;28;20082;-35
2022/02/05 10:20:46;;;;;;;10.52;3.63;;;;;;;5.15;89.64;102095.38;5055694;28;20086;-35
2022/02/05 10:23:11;;;;;;;16.57;3.93;;;;;;;5.20;90.30;102083.31;5055291;28;20045;-35
2022/02/05 10:25:37;;;;;;;11.47;3.73;;;;;;;5.23;90.54;102075.78;5055536;28;20028;-35
2022/02/05 10:28:09;;;;;;;11.98;4.07;;;;;;;5.30;89.68;102092.03;5055423;28;20079;-35
2022/02/05 10:30:35;;;;;;;12.27;3.80;;;;;;;5.36;89.76;102084.16;5055407;28;20465;-35
2022/02/05 10:33:08;;;;;;;13.20;3.58;;;;;;;5.41;89.27;102078.28;5055355;28;20036;-35
2022/02/05 10:35:53;;;;;;;16.77;5.05;;;;;;;5.40;88.48;102077.47;5054862;28;20036;-35
2022/02/05 10:38:48;;;;;;;12.75;3.78;;;;;;;5.54;88.89;102085.84;5054860;28;20061;-35
2022/02/05 10:44:19;;;;;;;10.25;3.67;;;;;;;5.61;88.54;102070.75;5055495;28;20483;-35
2022/02/05 10:46:52;;;;;;;11.38;3.47;;;;;;;5.65;87.69;102075.63;5055861;28;20052;-35
2022/02/05 10:49:46;;;;;;;8.68;3.35;;;;;;;5.80;88.00;102078.44;5055433;28;20028;-35
2022/02/05 10:52:34;;;;;;;11.90;2.90;;;;;;;5.86;86.95;102069.75;5055242;28;20017;-35
2022/02/05 10:55:21;;;;;;;11.20;3.10;;;;;;;5.91;86.43;102077.28;5055142;28;20055;-35
2022/02/05 11:05:42;;;;;;;11.40;3.35;;;;;;;6.18;83.14;102078.75;5054769;28;20066;-35
2022/02/05 11:08:09;;;;;;;7.75;3.03;;;;;;;6.07;83.38;102049.59;5054825;28;20462;-35
2022/02/05 11:18:39;;;;;;;12.20;3.30;;;;;;;5.85;83.81;102068.03;5054527;28;20048;-35
2022/02/05 11:21:05;;;;;;;9.60;2.67;;;;;;;5.77;83.25;102070.75;5054325;28;20032;-35
2022/02/05 11:23:33;;;;;;;9.90;2.85;;;;;;;5.81;84.18;102074.78;5054209;28;20385;-35
2022/02/05 11:25:59;;;;;;;16.58;3.88;;;;;;;5.86;84.38;102063.53;5054480;28;20031;-35
2022/02/05 11:28:44;;;;;;;15.77;4.60;;;;;;;5.82;84.24;102051.47;5054504;28;20043;-35
2022/02/05 11:31:14;;;;;;;10.25;3.08;;;;;;;5.89;84.12;102039.03;5053722;28;20469;-35
2022/02/05 11:33:40;;;;;;;12.50;3.38;;;;;;;6.12;84.18;102063.34;5054031;28;20124;-35
2022/02/05 11:38:45;;;;;;;11.75;3.20;;;;;;;6.19;82.87;102054.41;5054024;28;20063;-36
2022/02/05 11:41:32;;;;;;;12.65;2.83;;;;;;;6.26;82.33;102059.94;5053517;28;20025;-36
2022/02/05 11:44:30;;;;;;;10.65;2.97;;;;;;;6.36;83.32;102059.75;5053745;28;20194;-36
2022/02/05 11:47:07;;;;;;;13.23;3.28;;;;;;;6.47;82.25;102053.97;5052903;28;20061;-36
2022/02/05 11:49:51;;;;;;;12.13;3.00;;;;;;;6.50;81.12;102052.81;5053894;28;20064;-36
2022/02/05 11:52:35;;;;;;;9.57;2.80;;;;;;;6.46;80.91;102044.25;5053647;28;20025;-36
2022/02/05 11:55:07;;;;;;;11.88;3.42;;;;;;;6.49;81.75;102018.88;5052514;28;20035;-35
2022/02/05 11:57:41;;;;;;;12.32;2.90;;;;;;;6.80;81.47;102051.97;5053411;28;20540;-35
2022/02/05 12:00:09;;;;;;;9.60;3.20;;;;;;;6.89;79.24;102034.78;5053705;28;20465;-35
2022/02/05 12:02:46;;;;;;;11.57;3.00;;;;;;;6.77;77.39;102024.59;5053581;28;20083;-36
2022/02/05 12:05:16;;;;;;;11.73;3.05;;;;;;;6.58;77.93;101996.31;5053948;28;20365;-36
2022/02/05 12:08:03;;;;;;;11.32;2.97;;;;;;;6.74;78.73;102028.50;5053122;28;20035;-34
2022/02/05 12:10:35;;;;;;;9.20;2.80;;;;;;;6.72;78.22;102007.16;5053745;28;20052;-35
2022/02/05 12:13:15;;;;;;;8.52;2.40;;;;;;;6.81;78.44;102012.47;5054022;28;20091;-35
2022/02/05 12:15:46;;;;;;;12.20;2.53;;;;;;;6.84;76.52;102014.81;5053484;28;20021;-35
2022/02/05 12:21:09;;;;;;;8.52;2.83;;;;;;;6.74;76.73;102011.53;5053243;28;20040;-35
2022/02/05 12:26:18;;;;;;;6.45;2.22;;;;;;;6.70;76.42;102017.25;5053432;28;20109;-35
2022/02/05 12:28:46;;;;;;;11.95;3.17;;;;;;;6.58;76.72;102004.38;5053491;28;20025;-36
2022/02/05 12:31:17;;;;;;;12.82;2.50;;;;;;;6.64;75.33;102012.59;5053635;28;20078;-35
2022/02/05 12:33:48;;;;;;;7.82;2.50;;;;;;;6.55;76.03;102008.28;5053108;28;20520;-35
2022/02/05 12:36:25;;;;;;;8.13;2.30;;;;;;;6.56;76.05;102007.25;5052487;28;20036;-34
2022/02/05 12:38:52;;;;;;;10.77;3.20;;;;;;;6.51;75.40;102001.56;5051722;28;20025;-36
2022/02/05 12:41:17;;;;;;;6.22;2.42;;;;;;;6.46;75.12;102001.25;5052652;28;20507;-35
2022/02/05 12:43:54;;;;;;;9.10;2.80;;;;;;;6.44;75.66;101996.06;5052984;28;20029;-35
2022/02/05 12:46:22;;;;;;;;;;;;;;;6.46;77.66;101995.88;5053320;28;20353;-35
2022/02/05 12:48:53;;;;;;;9.25;2.90;;;;;;;6.48;75.78;101993.00;5052655;28;20361;-35
2022/02/05 12:51:18;;;;;;;9.50;2.80;;;;;;;6.53;75.15;101985.25;5053189;28;20450;-35
2022/02/05 12:53:44;;;;;;;5.25;2.40;;;;;;;6.63;74.54;101980.50;5053206;28;20111;-35
2022/02/05 12:56:12;;;;;;;7.30;2.75;;;;;;;6.60;75.02;101983.56;5052614;28;20051;-36
2022/02/05 12:59:01;;;;;;;11.90;3.13;;;;;;;6.63;74.75;101964.38;5052855;28;20033;-35
2022/02/05 13:01:28;;;;;;;8.00;2.97;;;;;;;6.62;73.57;101978.81;5053372;28;20369;-36
2022/02/05 13:04:09;;;;;;;10.82;3.25;;;;;;;6.54;72.68;101976.19;5052799;28;20059;-35
2022/02/05 13:06:35;;;;;;;7.10;2.63;;;;;;;6.45;73.04;101978.09;5053448;28;20424;-35
2022/02/05 13:09:00;;;;;;;7.07;2.20;;;;;;;6.54;73.47;101965.44;5052662;28;20029;-35
2022/02/05 13:11:29;;;;;;;8.07;2.57;;;;;;;6.64;73.34;101966.06;5053291;28;20453;-35
2022/02/05 13:13:55;;;;;;;7.35;2.58;;;;;;;6.70;72.08;101976.09;5053444;28;20033;-35
2022/02/05 13:16:21;;;;;;;9.73;2.97;;;;;;;6.68;72.50;101956.59;5052855;28;20032;-35
2022/02/05 13:19:06;;;;;;;8.80;2.80;;;;;;;6.79;72.54;101958.91;5052613;28;20065;-35
2022/02/05 13:27:24;;;;;;;9.23;2.38;;;;;;;7.01;71.20;101957.22;5052599;28;20405;-35
2022/02/05 13:33:34;;;;;;;9.52;2.90;;;;;;;7.04;69.36;101947.97;5052790;28;20029;-35
2022/02/05 13:35:25;;;;;;;10.60;2.92;;;;;;;7.12;68.81;101943.31;5052672;28;20044;-35
2022/02/05 13:37:55;;;;;;;7.37;3.30;;;;;;;7.09;69.66;101919.50;5052420;28;20025;-34
2022/02/05 13:40:29;;;;;;;11.15;2.65;;;;;;;7.23;69.89;101939.38;5052472;28;20345;-35
2022/02/05 13:43:05;;;;;;;9.32;3.22;;;;;;;7.15;67.72;101920.63;5053161;28;20174;-36
2022/02/05 13:45:36;;;;;;;7.18;2.70;;;;;;;7.21;67.22;101931.47;5053363;28;20048;-35
2022/02/05 13:48:04;;;;;;;8.40;2.20;;;;;;;7.13;68.31;101933.44;5053548;28;20458;-36
2022/02/05 13:50:37;;;;;;;8.90;3.40;;;;;;;7.14;68.11;101940.47;5056534;28;20033;-35
2022/02/05 13:53:06;;;;;;;13.48;3.35;;;;;;;7.14;67.90;101943.16;5055915;28;20488;-35
2022/02/05 13:55:34;;;;;;;7.95;2.63;;;;;;;7.07;68.04;101928.75;5055899;28;20045;-35
2022/02/05 13:58:04;;;;;;;11.55;3.28;;;;;;;6.97;68.31;101929.00;5055496;28;20495;-35
2022/02/05 14:00:48;;;;;;;11.82;4.18;;;;;;;7.04;68.92;101935.34;5055751;28;20107;-35
2022/02/05 14:03:32;;;;;;;7.90;3.28;;;;;;;7.04;69.63;101929.13;5054667;28;20051;-35
2022/02/05 14:06:00;;;;;;;7.70;2.53;;;;;;;7.01;69.02;101926.78;5055870;28;20028;-35
2022/02/05 14:08:31;;;;;;;8.60;2.45;;;;;;;6.89;69.61;101911.09;5055747;28;20017;-35
2022/02/05 14:11:07;;;;;;;8.23;3.05;;;;;;;6.99;70.98;101915.41;5055989;28;20086;-35
2022/02/05 14:13:33;;;;;;;8.15;2.70;;;;;;;6.97;70.47;101920.94;5055243;28;20063;-35
2022/02/05 14:16:01;;;;;;;8.45;2.20;;;;;;;6.91;70.78;101922.50;5055540;28;20025;-35
2022/02/05 14:18:29;;;;;;;7.22;1.80;;;;;;;6.88;70.61;101904.06;5055958;28;20579;-35
2022/02/05 14:21:01;;;;;;;8.95;2.75;;;;;;;6.89;71.89;101912.94;5055625;28;20021;-35
2022/02/05 14:23:29;;;;;;;7.60;2.22;;;;;;;6.83;71.26;101892.13;5054939;28;20036;-34
2022/02/05 14:26:09;;;;;;;9.25;2.28;;;;;;;6.96;72.03;101909.34;5054122;28;20043;-35
2022/02/05 14:28:51;;;;;;;7.63;2.50;;;;;;;6.86;72.13;101881.03;5055425;28;20151;-35
2022/02/05 14:36:50;;;;;;;12.07;2.60;;;;;;;7.00;72.51;101891.00;5055051;28;20032;-35